createdAt,value
2022-09-03T00:01:42.815Z,2.97
2022-09-03T00:04:40.678Z,4.80
2022-09-03T00:07:17.372Z,4.40
2022-09-03T00:09:50.834Z,2.75
2022-09-03T00:12:25.006Z,4.13
2022-09-03T00:14:58.331Z,2.97
2022-09-03T00:17:51.737Z,2.92
2022-09-03T00:20:58.903Z,4.57
2022-09-03T00:23:29.114Z,2.88
2022-09-03T00:26:12.342Z,4.03
2022-09-03T00:28:46.507Z,5.60
2022-09-03T00:31:29.167Z,3.90
2022-09-03T00:34:02.482Z,3.20
2022-09-03T00:36:43.579Z,4.95
2022-09-03T00:39:13.503Z,4.45
2022-09-03T00:42:08.068Z,4.45
2022-09-03T00:45:13.010Z,5.72
2022-09-03T00:48:08.039Z,3.47
2022-09-03T00:50:53.799Z,5.70
2022-09-03T00:53:52.184Z,4.18
2022-09-03T01:00:26.420Z,3.88
2022-09-03T01:03:23.145Z,4.03
2022-09-03T01:10:10.204Z,5.93
2022-09-03T01:12:59.878Z,4.55
2022-09-03T01:16:04.153Z,5.07
2022-09-03T01:18:40.140Z,4.27
2022-09-03T01:21:30.500Z,5.18
2022-09-03T01:24:19.203Z,3.50
2022-09-03T01:27:32.922Z,3.50
2022-09-03T01:30:11.166Z,4.47
2022-09-03T01:33:04.596Z,4.70
2022-09-03T01:35:43.856Z,4.50
2022-09-03T01:38:35.226Z,5.60
2022-09-03T01:41:38.744Z,4.57
2022-09-03T01:44:16.930Z,7.40
2022-09-03T01:46:46.144Z,3.57
2022-09-03T01:49:22.762Z,4.28
2022-09-03T01:52:13.994Z,6.15
2022-09-03T01:54:53.004Z,4.28
2022-09-03T01:57:46.187Z,4.90
2022-09-03T02:00:20.854Z,5.23
2022-09-03T02:02:51.602Z,6.50
2022-09-03T02:05:22.967Z,5.47
2022-09-03T02:08:11.515Z,4.45
2022-09-03T02:10:56.651Z,4.50
2022-09-03T02:14:00.667Z,5.50
2022-09-03T02:16:33.552Z,8.48
2022-09-03T02:19:10.990Z,9.38
2022-09-03T02:21:51.068Z,5.05
2022-09-03T02:24:18.477Z,8.57
2022-09-03T02:26:46.960Z,5.53
2022-09-03T02:29:17.347Z,4.82
2022-09-03T02:31:45.046Z,5.10
2022-09-03T02:34:12.347Z,4.93
2022-09-03T02:36:46.645Z,4.13
2022-09-03T02:39:15.617Z,5.17
2022-09-03T02:41:44.942Z,6.55
2022-09-03T02:44:24.716Z,7.68
2022-09-03T02:47:01.892Z,4.80
2022-09-03T02:49:29.952Z,4.95
2022-09-03T02:52:15.416Z,5.23
2022-09-03T02:54:45.316Z,5.40
2022-09-03T02:57:15.061Z,4.28
2022-09-03T02:59:44.742Z,6.03
2022-09-03T03:02:12.831Z,6.30
2022-09-03T03:04:40.366Z,5.70
2022-09-03T03:07:07.848Z,5.43
2022-09-03T03:09:34.884Z,5.30
2022-09-03T03:12:04.395Z,4.55
2022-09-03T03:14:31.395Z,6.00
2022-09-03T03:16:58.568Z,3.90
2022-09-03T03:19:25.701Z,6.28
2022-09-03T03:21:52.865Z,4.50
2022-09-03T03:24:19.956Z,4.47
2022-09-03T03:26:47.032Z,6.03
2022-09-03T03:29:20.808Z,5.33
2022-09-03T03:31:47.960Z,5.53
2022-09-03T03:34:14.954Z,4.40
2022-09-03T03:36:41.930Z,6.10
2022-09-03T03:39:11.211Z,4.60
2022-09-03T03:41:38.500Z,7.57
2022-09-03T03:44:07.593Z,4.80
2022-09-03T03:46:37.118Z,4.88
2022-09-03T03:49:06.864Z,4.93
2022-09-03T03:51:34.943Z,6.28
2022-09-03T03:54:05.211Z,3.83
2022-09-03T03:56:33.284Z,5.53
2022-09-03T03:59:00.648Z,6.22
2022-09-03T04:01:28.822Z,4.43
2022-09-03T04:03:57.451Z,4.82
2022-09-03T04:06:25.022Z,4.32
2022-09-03T04:08:52.260Z,4.90
2022-09-03T04:11:24.141Z,4.65
2022-09-03T04:13:52.002Z,3.90
2022-09-03T04:16:21.744Z,4.97
2022-09-03T04:18:49.629Z,4.25
2022-09-03T04:21:21.707Z,6.40
2022-09-03T04:23:51.075Z,3.80
2022-09-03T04:26:21.246Z,4.30
2022-09-03T04:28:48.707Z,3.95
2022-09-03T04:31:17.727Z,5.65
2022-09-03T04:33:45.718Z,4.53
2022-09-03T04:36:18.128Z,4.90
2022-09-03T04:38:47.493Z,5.80
2022-09-03T04:41:19.153Z,3.65
2022-09-03T04:43:51.534Z,3.97
2022-09-03T04:46:23.604Z,7.07
2022-09-03T04:48:52.497Z,4.72
2022-09-03T04:51:25.332Z,4.10
2022-09-03T04:53:57.401Z,4.88
2022-09-03T04:56:29.456Z,5.47
2022-09-03T04:59:01.727Z,8.00
2022-09-03T05:01:32.218Z,6.65
2022-09-03T05:04:00.298Z,4.57
2022-09-03T05:06:28.679Z,4.72
2022-09-03T05:08:56.448Z,4.45
2022-09-03T05:11:24.836Z,4.70
2022-09-03T05:13:54.496Z,5.75
2022-09-03T05:16:22.698Z,4.30
2022-09-03T05:18:54.159Z,4.45
2022-09-03T05:21:22.673Z,4.63
2022-09-03T05:23:51.366Z,4.47
2022-09-03T05:26:40.344Z,4.43
2022-09-03T05:29:08.382Z,5.53
2022-09-03T05:31:39.388Z,4.60
2022-09-03T05:34:07.441Z,5.75
2022-09-03T05:36:36.991Z,5.87
2022-09-03T05:39:05.944Z,9.82
2022-09-03T05:41:34.296Z,7.72
2022-09-03T05:44:02.084Z,5.93
2022-09-03T05:46:34.494Z,4.97
2022-09-03T05:49:04.061Z,6.17
2022-09-03T05:51:32.589Z,6.53
2022-09-03T05:53:59.916Z,4.70
2022-09-03T05:56:30.447Z,5.90
2022-09-03T05:59:02.041Z,4.57
2022-09-03T06:01:45.795Z,5.00
2022-09-03T06:04:19.596Z,4.85
2022-09-03T06:06:47.988Z,5.95
2022-09-03T06:09:23.136Z,5.75
2022-09-03T06:11:52.527Z,6.25
2022-09-03T06:14:20.821Z,7.60
2022-09-03T06:16:53.051Z,4.75
2022-09-03T06:19:52.830Z,5.95
2022-09-03T06:22:48.631Z,5.32
2022-09-03T06:25:15.868Z,6.38
2022-09-03T06:27:46.319Z,7.13
2022-09-03T06:30:14.247Z,4.55
2022-09-03T06:32:47.860Z,6.35
2022-09-03T06:35:18.320Z,8.15
2022-09-03T06:37:49.062Z,4.60
2022-09-03T06:40:22.651Z,6.50
2022-09-03T06:43:02.084Z,5.93
2022-09-03T06:45:36.712Z,5.70
2022-09-03T06:48:05.915Z,6.55
2022-09-03T06:50:34.766Z,5.40
2022-09-03T06:53:10.341Z,5.80
2022-09-03T06:55:40.247Z,3.70
2022-09-03T06:58:07.738Z,4.85
2022-09-03T07:00:34.825Z,3.70
2022-09-03T07:03:03.981Z,4.13
2022-09-03T07:05:56.188Z,4.23
2022-09-03T07:08:23.464Z,4.53
2022-09-03T07:10:51.461Z,2.95
2022-09-03T07:13:20.314Z,7.20
2022-09-03T07:15:47.261Z,4.10
2022-09-03T07:18:14.375Z,4.80
2022-09-03T07:20:41.410Z,3.60
2022-09-03T07:23:08.471Z,7.43
2022-09-03T07:25:35.503Z,4.45
2022-09-03T07:28:06.944Z,4.22
2022-09-03T07:30:33.975Z,6.27
2022-09-03T07:33:04.660Z,4.43
2022-09-03T07:35:31.796Z,3.80
2022-09-03T07:38:00.171Z,4.68
2022-09-03T07:40:27.319Z,6.00
2022-09-03T07:43:04.687Z,8.07
2022-09-03T07:45:33.330Z,5.88
2022-09-03T07:48:00.782Z,7.50
2022-09-03T07:50:27.873Z,5.70
2022-09-03T07:53:00.287Z,2.90
2022-09-03T07:55:28.318Z,5.07
2022-09-03T07:57:59.623Z,4.45
2022-09-03T08:00:29.343Z,7.38
2022-09-03T08:03:06.825Z,4.22
2022-09-03T08:05:36.392Z,6.63
2022-09-03T08:08:06.879Z,7.83
2022-09-03T08:10:38.488Z,3.47
2022-09-03T08:13:05.823Z,9.55
2022-09-03T08:15:34.365Z,8.10
2022-09-03T08:18:03.413Z,5.13
2022-09-03T08:20:33.058Z,6.17
2022-09-03T08:23:03.622Z,7.32
2022-09-03T08:25:30.680Z,8.93
2022-09-03T08:28:00.781Z,4.65
2022-09-03T08:30:29.300Z,7.43
2022-09-03T08:32:56.738Z,6.97
2022-09-03T08:35:23.827Z,4.88
2022-09-03T08:37:56.799Z,7.53
2022-09-03T08:40:24.529Z,4.82
2022-09-03T08:43:08.534Z,7.10
2022-09-03T08:45:37.861Z,5.07
2022-09-03T08:48:10.655Z,5.80
2022-09-03T08:50:45.378Z,6.53
2022-09-03T08:53:46.708Z,10.20
2022-09-03T08:56:28.925Z,5.25
2022-09-03T08:58:56.199Z,4.77
2022-09-03T09:01:56.777Z,2.80
2022-09-03T09:05:00.922Z,5.82
2022-09-03T09:07:54.279Z,8.23
2022-09-03T09:10:47.199Z,10.57
2022-09-03T09:13:30.018Z,6.07
2022-09-03T09:15:59.954Z,4.65
2022-09-03T09:18:40.781Z,7.38
2022-09-03T09:21:11.437Z,4.35
2022-09-03T09:23:44.701Z,6.10
2022-09-03T09:26:18.278Z,3.73
2022-09-03T09:29:02.699Z,3.47
2022-09-03T09:31:31.875Z,2.67
2022-09-03T09:34:07.920Z,6.05
2022-09-03T09:36:48.788Z,7.90
2022-09-03T09:39:16.264Z,4.10
2022-09-03T09:41:44.764Z,5.43
2022-09-03T09:44:21.180Z,6.38
2022-09-03T09:46:52.766Z,5.10
2022-09-03T09:49:50.711Z,5.93
2022-09-03T09:52:18.226Z,2.60
2022-09-03T09:54:46.401Z,6.20
2022-09-03T09:57:22.806Z,3.40
2022-09-03T09:59:50.597Z,5.82
2022-09-03T10:02:29.300Z,3.88
2022-09-03T10:05:20.325Z,3.27
2022-09-03T10:08:25.807Z,2.53
2022-09-03T10:10:53.092Z,3.40
2022-09-03T10:13:27.037Z,3.75
2022-09-03T10:16:28.171Z,2.97
2022-09-03T10:19:09.560Z,4.63
2022-09-03T10:21:45.607Z,5.65
2022-09-03T10:24:33.547Z,6.75
2022-09-03T10:27:01.798Z,4.32
2022-09-03T10:29:30.176Z,4.18
2022-09-03T10:32:38.845Z,2.30
2022-09-03T10:35:36.291Z,2.95
2022-09-03T10:38:06.678Z,3.60
2022-09-03T10:40:39.376Z,4.10
2022-09-03T10:43:30.316Z,3.05
2022-09-03T10:46:06.614Z,3.20
2022-09-03T10:48:55.419Z,5.03
2022-09-03T10:51:34.069Z,5.32
2022-09-03T10:54:32.748Z,6.75
2022-09-03T10:57:24.636Z,2.72
2022-09-03T11:00:10.504Z,5.23
2022-09-03T11:03:02.446Z,5.57
2022-09-03T11:05:56.592Z,3.67
2022-09-03T11:08:39.574Z,4.13
2022-09-03T11:11:12.474Z,3.42
2022-09-03T11:14:05.456Z,4.45
2022-09-03T11:16:40.228Z,5.47
2022-09-03T11:19:11.707Z,4.72
2022-09-03T11:21:42.192Z,6.28
2022-09-03T11:24:22.386Z,3.13
2022-09-03T11:27:03.130Z,4.50
2022-09-03T11:29:38.282Z,5.32
2022-09-03T11:32:22.067Z,6.05
2022-09-03T11:34:53.927Z,6.15
2022-09-03T11:37:25.586Z,7.32
2022-09-03T11:40:18.905Z,8.32
2022-09-03T11:42:47.558Z,6.88
2022-09-03T11:45:21.332Z,8.75
2022-09-03T11:47:49.474Z,7.85
2022-09-03T11:50:20.979Z,3.55
2022-09-03T11:52:52.474Z,5.78
2022-09-03T11:55:54.854Z,4.28
2022-09-03T11:58:43.072Z,3.22
2022-09-03T12:01:20.184Z,3.95
2022-09-03T12:04:06.615Z,6.18
2022-09-03T12:06:33.778Z,7.93
2022-09-03T12:09:25.623Z,4.63
2022-09-03T12:12:28.145Z,4.25
2022-09-03T12:15:07.388Z,7.15
2022-09-03T12:18:15.265Z,7.88
2022-09-03T12:20:43.238Z,7.00
2022-09-03T12:23:28.289Z,5.10
2022-09-03T12:25:55.685Z,3.10
2022-09-03T12:28:25.318Z,4.95
2022-09-03T12:31:05.655Z,5.85
2022-09-03T12:33:34.398Z,4.00
2022-09-03T12:36:02.563Z,2.53
2022-09-03T12:38:40.571Z,4.00
2022-09-03T12:41:28.477Z,3.42
2022-09-03T12:44:00.764Z,3.97
2022-09-03T12:46:34.096Z,2.65
2022-09-03T12:52:05.527Z,7.18
2022-09-03T12:54:44.077Z,3.75
2022-09-03T12:57:22.830Z,5.57
2022-09-03T12:59:53.349Z,3.80
2022-09-03T13:02:30.430Z,7.57
2022-09-03T13:04:57.722Z,6.68
2022-09-03T13:07:37.418Z,5.72
2022-09-03T13:10:10.043Z,5.70
2022-09-03T13:12:53.187Z,5.05
2022-09-03T13:15:24.853Z,5.10
2022-09-03T13:18:17.782Z,4.88
2022-09-03T13:21:11.133Z,4.10
2022-09-03T13:23:40.915Z,5.40
2022-09-03T13:26:24.237Z,2.55
2022-09-03T13:29:33.027Z,5.22
2022-09-03T13:32:17.172Z,4.18
2022-09-03T13:34:54.701Z,4.15
2022-09-03T13:37:40.269Z,4.05
2022-09-03T13:40:17.377Z,3.75
2022-09-03T13:42:53.316Z,5.80
2022-09-03T13:45:38.211Z,4.28
2022-09-03T13:48:29.106Z,4.63
2022-09-03T13:51:09.536Z,5.50
2022-09-03T13:53:48.748Z,3.22
2022-09-03T13:56:38.527Z,4.32
2022-09-03T13:59:33.839Z,5.20
2022-09-03T14:02:13.266Z,3.05
2022-09-03T14:05:08.232Z,3.15
2022-09-03T14:08:19.304Z,4.28
2022-09-03T14:10:58.070Z,5.57
2022-09-03T14:13:41.887Z,3.45
2022-09-03T14:16:30.784Z,5.07
2022-09-03T14:19:07.491Z,6.22
2022-09-03T14:21:58.402Z,5.25
2022-09-03T14:24:36.290Z,4.45
2022-09-03T14:27:05.775Z,6.10
2022-09-03T14:29:35.221Z,4.20
2022-09-03T14:32:20.630Z,4.03
2022-09-03T14:35:14.344Z,3.20
2022-09-03T14:38:13.511Z,3.95
2022-09-03T14:41:27.529Z,3.42
2022-09-03T14:44:05.499Z,3.53
2022-09-03T14:46:32.543Z,4.38
2022-09-03T14:49:34.441Z,3.97
2022-09-03T14:52:17.393Z,4.03
2022-09-03T14:55:26.217Z,3.42
2022-09-03T14:58:35.895Z,3.92
2022-09-03T15:01:13.414Z,3.65
2022-09-03T15:04:09.450Z,3.55
2022-09-03T15:07:14.135Z,3.03
2022-09-03T15:10:13.728Z,3.33
2022-09-03T15:12:46.471Z,6.38
2022-09-03T15:15:43.476Z,3.35
2022-09-03T15:18:16.586Z,3.05
2022-09-03T15:21:01.942Z,3.35
2022-09-03T15:28:11.856Z,3.03
2022-09-03T15:31:01.966Z,3.97
2022-09-03T15:33:36.252Z,3.63
2022-09-03T15:36:17.851Z,3.78
2022-09-03T15:39:09.162Z,3.75
2022-09-03T15:41:57.225Z,4.45
2022-09-03T15:44:27.349Z,4.10
2022-09-03T15:47:14.256Z,3.03
2022-09-03T15:49:47.835Z,17.45
2022-09-03T15:52:53.446Z,4.68
2022-09-03T15:55:32.587Z,4.45
2022-09-03T15:58:10.622Z,3.42
2022-09-03T16:01:21.697Z,4.43
2022-09-03T16:04:18.932Z,5.13
2022-09-03T16:07:18.378Z,6.45
2022-09-03T16:10:22.672Z,6.30
2022-09-03T16:12:47.942Z,5.72
2022-09-03T16:15:24.208Z,6.25
2022-09-03T16:17:51.266Z,5.47
2022-09-03T16:20:29.497Z,10.32
2022-09-03T16:23:03.559Z,3.80
2022-09-03T16:25:56.552Z,4.82
2022-09-03T16:28:54.129Z,6.10
2022-09-03T16:31:33.474Z,6.13
2022-09-03T16:34:18.873Z,6.07
2022-09-03T16:36:52.233Z,9.30
2022-09-03T16:39:45.381Z,14.63
2022-09-03T16:42:48.399Z,7.15
2022-09-03T16:45:38.750Z,3.88
2022-09-03T16:48:41.671Z,5.60
2022-09-03T16:51:17.208Z,6.63
2022-09-03T16:54:03.464Z,6.70
2022-09-03T16:56:59.713Z,6.53
2022-09-03T16:59:52.071Z,5.85
2022-09-03T17:02:40.778Z,4.88
2022-09-03T17:05:33.365Z,8.80
2022-09-03T17:08:37.492Z,6.70
2022-09-03T17:11:17.930Z,8.18
2022-09-03T17:14:35.330Z,11.48
2022-09-03T17:17:25.665Z,6.05
2022-09-03T17:20:09.141Z,7.88
2022-09-03T17:22:54.794Z,6.57
2022-09-03T17:25:35.725Z,6.50
2022-09-03T17:28:30.359Z,6.93
2022-09-03T17:31:04.235Z,10.85
2022-09-03T17:33:56.032Z,20.58
2022-09-03T17:36:28.070Z,7.68
2022-09-03T17:39:17.099Z,7.55
2022-09-03T17:41:53.425Z,6.55
2022-09-03T17:44:38.600Z,7.00
2022-09-03T17:47:08.413Z,6.55
2022-09-03T17:49:48.615Z,6.65
2022-09-03T17:52:33.271Z,8.43
2022-09-03T17:55:11.880Z,10.30
2022-09-03T17:57:45.859Z,8.07
2022-09-03T18:00:24.081Z,7.95
2022-09-03T18:03:11.703Z,11.98
2022-09-03T18:05:46.175Z,8.65
2022-09-03T18:08:28.610Z,7.50
2022-09-03T18:10:55.643Z,7.50
2022-09-03T18:13:44.050Z,8.43
2022-09-03T18:16:28.860Z,6.25
2022-09-03T18:19:30.072Z,6.00
2022-09-03T18:22:24.105Z,8.57
2022-09-03T18:25:18.230Z,8.85
2022-09-03T18:28:08.305Z,8.23
2022-09-03T18:30:53.743Z,5.13
2022-09-03T18:33:44.326Z,6.82
2022-09-03T18:36:31.347Z,7.78
2022-09-03T18:39:45.430Z,10.18
2022-09-03T18:42:37.121Z,7.88
2022-09-03T18:45:47.286Z,6.40
2022-09-03T18:48:54.708Z,6.65
2022-09-03T18:52:15.980Z,6.45
2022-09-03T18:55:23.315Z,7.53
2022-09-03T18:58:42.395Z,6.18
2022-09-03T19:01:55.047Z,6.65
2022-09-03T19:05:09.271Z,6.05
2022-09-03T19:08:04.186Z,6.18
2022-09-03T19:11:13.665Z,8.05
2022-09-03T19:13:59.931Z,6.03
2022-09-03T19:17:07.611Z,5.83
2022-09-03T19:20:30.272Z,9.45
2022-09-03T19:23:15.825Z,7.55
2022-09-03T19:26:02.089Z,6.57
2022-09-03T19:28:56.312Z,5.68
2022-09-03T19:32:12.336Z,7.60
2022-09-03T19:35:03.585Z,11.80
2022-09-03T19:37:59.451Z,10.90
2022-09-03T19:40:57.341Z,16.20
2022-09-03T19:44:00.800Z,8.95
2022-09-03T19:46:46.691Z,10.55
2022-09-03T19:50:03.025Z,9.48
2022-09-03T19:53:12.374Z,9.20
2022-09-03T19:56:07.406Z,11.57
2022-09-03T19:58:57.185Z,11.25
2022-09-03T20:01:49.869Z,8.67
2022-09-03T20:04:35.606Z,11.60
2022-09-03T20:07:25.909Z,9.48
2022-09-03T20:10:15.757Z,9.55
2022-09-03T20:12:48.677Z,11.40
2022-09-03T20:15:15.938Z,10.00
2022-09-03T20:17:52.102Z,7.10
2022-09-03T20:20:51.087Z,12.07
2022-09-03T20:23:35.347Z,9.30
2022-09-03T20:26:27.094Z,9.50
2022-09-03T20:29:18.603Z,12.48
2022-09-03T20:31:54.691Z,12.30
2022-09-03T20:34:47.463Z,10.43
2022-09-03T20:38:06.224Z,12.75
2022-09-03T20:40:45.612Z,10.95
2022-09-03T20:43:28.759Z,13.00
2022-09-03T20:46:14.727Z,11.55
2022-09-03T20:48:52.768Z,10.77
2022-09-03T20:51:34.961Z,14.55
2022-09-03T20:54:12.010Z,11.75
2022-09-03T20:57:03.068Z,9.13
2022-09-03T20:59:30.232Z,14.30
2022-09-03T21:02:18.696Z,15.40
2022-09-03T21:05:11.702Z,15.80
2022-09-03T21:07:50.635Z,13.45
2022-09-03T21:10:28.522Z,12.07
2022-09-03T21:20:24.962Z,16.08
2022-09-03T21:23:15.363Z,14.00
2022-09-03T21:25:52.558Z,17.00
2022-09-03T21:28:29.328Z,16.08
2022-09-03T21:31:19.172Z,11.13
2022-09-03T21:34:01.525Z,14.98
2022-09-03T21:36:35.089Z,15.38
2022-09-03T21:39:46.065Z,13.25
2022-09-03T21:42:38.132Z,12.93
2022-09-03T21:45:30.027Z,13.35
2022-09-03T21:48:12.381Z,22.50
2022-09-03T21:50:54.305Z,16.27
2022-09-03T21:53:36.293Z,17.88
2022-09-03T21:56:43.259Z,13.82
2022-09-03T21:59:37.099Z,15.95
2022-09-03T22:02:17.200Z,14.52
2022-09-03T22:04:44.461Z,16.43
2022-09-03T22:07:16.630Z,13.77
2022-09-03T22:10:21.217Z,11.50
2022-09-03T22:12:55.750Z,11.77
2022-09-03T22:15:25.483Z,11.25
2022-09-03T22:18:04.750Z,8.20
2022-09-03T22:20:32.083Z,10.10
2022-09-03T22:23:14.593Z,10.95
2022-09-03T22:26:00.811Z,9.95
2022-09-03T22:28:42.268Z,11.50
2022-09-03T22:31:35.695Z,7.67
2022-09-03T22:34:31.924Z,9.82
2022-09-03T22:37:06.778Z,9.30
2022-09-03T22:39:47.066Z,8.77
2022-09-03T22:42:57.277Z,8.13
2022-09-03T22:45:33.223Z,8.87
2022-09-03T22:48:12.312Z,8.82
2022-09-03T22:51:01.981Z,9.82
2022-09-03T22:53:50.919Z,7.32
2022-09-03T22:56:22.619Z,7.93
2022-09-03T22:59:04.866Z,8.53
2022-09-03T23:01:39.425Z,7.10
2022-09-03T23:04:50.944Z,6.72
2022-09-03T23:07:39.246Z,6.43
2022-09-03T23:10:11.905Z,6.55
2022-09-03T23:13:11.276Z,6.53
2022-09-03T23:15:41.773Z,5.65
2022-09-03T23:18:17.872Z,6.70
2022-09-03T23:20:55.960Z,6.43
2022-09-03T23:23:29.878Z,5.80
2022-09-03T23:26:13.417Z,6.73
2022-09-03T23:28:45.667Z,5.68
2022-09-03T23:31:26.299Z,6.28
2022-09-03T23:33:55.533Z,5.95
2022-09-03T23:37:16.161Z,7.60
2022-09-03T23:39:47.428Z,6.33
2022-09-03T23:42:44.995Z,6.05
2022-09-03T23:45:29.796Z,6.72
2022-09-03T23:48:40.247Z,6.00
2022-09-03T23:51:25.817Z,5.15
2022-09-03T23:54:20.676Z,6.20
2022-09-03T23:56:53.021Z,8.05
2022-09-03T23:59:59.962Z,8.85
